Portada
METAR-TAF:

METAR-TAF

Aeroports :

Aeroport Internacional O'Hare

Chicago, Illinois, Estats Units d'Amèrica

latitud: 41-58-47N, longitud: 087-54-16W, altitud: 203 m

Observació

L'informe es va fer fa 25 minuts, a les 15:51 UTC
Vent 9 kt del Nord
Temperatura 9°C
Humitat 57%
Pressió 1026 hPa
Visibilitat: 16.1 km
Escasses núvols a una alçada de 3500 ft

METAR: KORD 231551Z 35009KT 10SM FEW035 09/01 A3029 RMK AO2 SLP259 T00890011

Hora: 11:16 (16:16 UTC)

Pronòstic

L'informe es va fer fa 1 hora i 27 minuts, a les 14:49 UTC
Pronòstic vàlid del 23 a les 15 UTC al 24 a les 18 UTC
Vent 12 kt del Nord
Visibilitat: 10 km
Escasses núvols a una alçada de 4000 ft
A partir de les 23 a les 2200 UTC
Vent 9 kt del Nord/Nord-Est
Visibilitat: 10 km
Núvols disperses a una alçada de 4000 ft
A partir de les 24 a les 0200 UTC
Vent 4 kt del Nord
Visibilitat: 10 km
Núvols disperses a una alçada de 3500 ft

TAF: KORD 231449Z 2315/2418 35012KT P6SM FEW040 FM232200 02009KT P6SM SCT040 FM240200 36004KT P6SM SCT035

Observacions i pronòstics meteorològics de més de 4000 aeroports (METAR i TAF).

Les estacions disponibles són els punts grocs i vermells al mapa.

Posi el ratolí al punt desitjat per veure el nom de l'estació.

Feu clic per veure les observacions i els pronòstics meteorològics.

Per canviar el mapa: feu clic els botons verds amb una creu de color negre per apropar; al botó verd amb un guió per allunyar la imatge; o en les fletxes verdes per a mapes adjacents.


METAR-TAF: